Time;durP1;ratioP1;P1;durP2;ratioP2;P2;SDS_P1;SDS_P2;PMS_P1;PMS_P2;Temp;Humidity;BMP_temperature;BMP_pressure;BME280_temperature;BME280_humidity;BME280_pressure;Samples;Min_cycle;Max_cycle;Signal;HPM_P1;HPM_P2
2021/12/08 00:01:56;;;;;;;2.47;1.40;;;5.30;99.90;;;;;;5046855;28;20200;-73
2021/12/08 00:04:41;;;;;;;3.83;2.08;;;5.30;99.90;;;;;;5051369;28;20202;-73
2021/12/08 00:07:27;;;;;;;5.22;1.45;;;5.40;99.90;;;;;;5048051;28;20236;-73
2021/12/08 00:10:27;;;;;;;3.25;1.30;;;5.40;99.90;;;;;;5046135;28;20681;-73
2021/12/08 00:13:20;;;;;;;2.90;1.45;;;5.40;99.90;;;;;;5051766;28;20228;-73
2021/12/08 00:16:09;;;;;;;4.05;1.27;;;5.40;99.90;;;;;;5051584;28;20217;-73
2021/12/08 00:18:58;;;;;;;2.70;1.50;;;5.50;99.90;;;;;;5049758;28;20192;-73
2021/12/08 00:21:44;;;;;;;4.90;1.40;;;5.50;99.90;;;;;;5047864;28;20201;-73
2021/12/08 00:24:30;;;;;;;9.02;2.00;;;5.40;99.90;;;;;;5051034;28;20567;-73
2021/12/08 00:27:16;;;;;;;7.70;1.35;;;5.30;99.90;;;;;;5053623;28;20204;-73
2021/12/08 00:30:01;;;;;;;2.92;1.40;;;5.30;99.90;;;;;;5046184;28;20205;-73
2021/12/08 00:32:50;;;;;;;3.13;1.67;;;5.30;99.90;;;;;;5047253;28;20664;-73
2021/12/08 00:35:37;;;;;;;5.57;2.33;;;5.30;99.90;;;;;;5051242;28;20233;-73
2021/12/08 00:38:23;;;;;;;6.15;1.63;;;5.20;99.90;;;;;;5047667;28;20287;-73
2021/12/08 00:41:09;;;;;;;6.00;2.45;;;5.20;99.90;;;;;;5045819;28;20643;-73
2021/12/08 00:43:55;;;;;;;5.90;2.22;;;5.10;99.90;;;;;;5046540;28;20243;-73
2021/12/08 00:46:40;;;;;;;4.20;2.15;;;5.00;99.90;;;;;;5051366;28;20244;-73
2021/12/08 00:49:27;;;;;;;4.50;1.90;;;5.10;99.90;;;;;;5046180;28;20232;-73
2021/12/08 00:52:14;;;;;;;4.07;1.60;;;5.10;99.90;;;;;;5050373;28;20200;-73
2021/12/08 00:55:01;;;;;;;4.07;1.65;;;5.10;99.90;;;;;;5049737;28;20285;-73
2021/12/08 00:57:48;;;;;;;7.47;1.92;;;5.00;99.90;;;;;;5049878;28;20567;-73
2021/12/08 01:00:37;;;;;;;4.57;1.98;;;5.00;99.90;;;;;;5047369;28;20312;-73
2021/12/08 01:03:22;;;;;;;3.33;1.60;;;5.00;99.90;;;;;;5050872;28;20204;-73
2021/12/08 01:06:10;;;;;;;3.40;1.60;;;5.00;99.90;;;;;;5048543;28;20223;-73
2021/12/08 01:08:55;;;;;;;2.28;1.55;;;4.90;99.90;;;;;;5050547;28;20221;-73
2021/12/08 01:11:41;;;;;;;4.45;1.85;;;4.80;99.90;;;;;;5050456;28;20201;-73
2021/12/08 01:14:27;;;;;;;3.40;1.67;;;4.80;99.90;;;;;;5055989;28;20208;-73
2021/12/08 01:17:14;;;;;;;2.45;1.80;;;4.80;99.90;;;;;;5049610;28;20196;-73
2021/12/08 01:20:00;;;;;;;2.70;1.90;;;4.70;99.90;;;;;;5046540;28;20279;-73
2021/12/08 01:22:47;;;;;;;3.88;2.05;;;4.70;99.90;;;;;;5048770;28;20205;-73
2021/12/08 01:25:33;;;;;;;2.55;1.40;;;4.80;99.90;;;;;;5050295;28;20304;-73
2021/12/08 01:28:20;;;;;;;4.82;2.10;;;4.80;99.90;;;;;;5050726;28;20228;-73
2021/12/08 01:31:06;;;;;;;6.53;1.90;;;4.80;99.90;;;;;;5048544;28;20557;-73
2021/12/08 01:33:52;;;;;;;4.30;2.00;;;4.70;99.90;;;;;;5043894;28;20196;-73
2021/12/08 01:36:38;;;;;;;2.70;1.63;;;4.70;99.90;;;;;;5048898;28;20721;-73
2021/12/08 01:39:25;;;;;;;3.03;1.80;;;4.70;99.90;;;;;;5039832;28;20213;-73
2021/12/08 01:42:17;;;;;;;2.95;1.70;;;4.70;99.90;;;;;;5050520;28;20577;-73
2021/12/08 01:48:10;;;;;;;3.05;1.83;;;4.70;99.90;;;;;;5048751;22;20240;-71
2021/12/08 01:51:02;;;;;;;5.00;1.77;;;4.70;99.90;;;;;;5028947;28;20209;-71
2021/12/08 01:53:51;;;;;;;3.17;1.83;;;4.70;99.90;;;;;;5034053;28;20232;-71
2021/12/08 01:56:40;;;;;;;3.20;1.63;;;4.80;99.90;;;;;;5026240;28;20222;-70
2021/12/08 01:59:25;;;;;;;3.45;1.55;;;4.80;99.90;;;;;;5007962;28;20211;-71
2021/12/08 02:02:11;;;;;;;3.05;1.58;;;4.80;99.90;;;;;;5009258;28;20333;-72
2021/12/08 02:04:57;;;;;;;3.15;1.50;;;4.80;99.90;;;;;;5012831;28;20206;-72
2021/12/08 02:07:42;;;;;;;3.33;1.73;;;4.80;99.90;;;;;;5014157;28;20221;-72
2021/12/08 02:10:28;;;;;;;4.35;2.10;;;4.80;99.90;;;;;;5008905;28;20207;-72
2021/12/08 02:13:16;;;;;;;4.85;2.20;;;4.80;99.90;;;;;;5015800;28;20201;-73
2021/12/08 02:16:02;;;;;;;5.03;2.15;;;4.70;99.90;;;;;;5017805;28;20252;-72
2021/12/08 02:18:50;;;;;;;3.72;1.75;;;4.70;99.90;;;;;;5014831;28;20678;-72
2021/12/08 02:21:40;;;;;;;5.88;2.00;;;4.70;99.90;;;;;;5010814;28;20219;-72
2021/12/08 02:24:26;;;;;;;3.60;2.00;;;4.70;99.90;;;;;;5017689;28;20597;-72
2021/12/08 02:27:11;;;;;;;3.13;2.70;;;4.70;99.90;;;;;;5014417;28;20225;-71
2021/12/08 02:30:04;;;;;;;6.40;2.00;;;4.70;99.90;;;;;;5007795;28;20319;-72
2021/12/08 02:48:12;;;;;;;3.17;1.83;;;4.70;99.90;;;;;;5007652;28;20230;-72
2021/12/08 02:50:58;;;;;;;3.10;1.75;;;4.80;99.90;;;;;;5016807;28;20291;-72
2021/12/08 02:53:44;;;;;;;4.80;1.85;;;4.80;99.90;;;;;;5011273;28;20204;-72
2021/12/08 02:56:31;;;;;;;4.18;1.77;;;4.70;99.90;;;;;;5017296;28;20237;-72
2021/12/08 02:59:17;;;;;;;2.95;1.80;;;4.70;99.90;;;;;;5007500;28;20202;-72
2021/12/08 03:02:03;;;;;;;3.83;1.85;;;4.70;99.90;;;;;;5009552;28;20293;-72
2021/12/08 03:04:48;;;;;;;3.72;1.92;;;4.80;99.90;;;;;;5014832;28;20205;-72
2021/12/08 03:07:34;;;;;;;4.15;2.33;;;4.80;99.90;;;;;;5010007;28;20628;-72
2021/12/08 03:10:23;;;;;;;3.40;2.17;;;4.80;99.90;;;;;;5010550;28;20268;-73
2021/12/08 03:13:10;;;;;;;3.05;2.13;;;4.80;99.90;;;;;;5009450;28;20198;-72
2021/12/08 03:15:56;;;;;;;5.32;2.28;;;4.80;99.90;;;;;;5012947;28;20209;-72
2021/12/08 03:18:42;;;;;;;2.90;1.95;;;4.70;99.90;;;;;;5004801;28;20198;-72
2021/12/08 03:21:31;;;;;;;5.38;2.40;;;4.70;99.90;;;;;;5013039;28;20210;-72
2021/12/08 03:24:24;;;;;;;10.38;2.10;;;4.70;99.90;;;;;;5009081;28;20281;-72
2021/12/08 03:27:13;;;;;;;8.93;2.03;;;4.80;99.90;;;;;;5012012;28;20714;-72
2021/12/08 03:30:12;;;;;;;3.30;2.35;;;4.80;99.90;;;;;;5010626;28;20225;-72
2021/12/08 03:32:58;;;;;;;6.03;2.17;;;4.70;99.90;;;;;;5013303;28;20202;-70
2021/12/08 03:35:44;;;;;;;3.03;2.10;;;4.70;99.90;;;;;;5020923;28;20206;-70
2021/12/08 03:38:30;;;;;;;4.90;2.15;;;4.70;99.90;;;;;;5009855;28;20306;-70
2021/12/08 03:41:16;;;;;;;2.85;2.10;;;4.80;99.90;;;;;;5017936;28;20218;-70
2021/12/08 03:44:04;;;;;;;3.33;1.90;;;4.80;99.90;;;;;;5008435;28;20198;-71
2021/12/08 03:46:54;;;;;;;7.28;2.63;;;4.70;99.90;;;;;;5016653;28;20329;-72
2021/12/08 03:49:41;;;;;;;2.83;2.15;;;4.80;99.90;;;;;;5021112;28;20715;-72
2021/12/08 03:52:27;;;;;;;4.15;2.40;;;4.80;99.90;;;;;;5018589;28;20205;-69
2021/12/08 03:55:15;;;;;;;6.30;2.03;;;4.80;99.90;;;;;;5023147;28;20201;-70
2021/12/08 03:58:01;;;;;;;8.05;2.72;;;4.70;99.90;;;;;;5012512;28;20585;-70
2021/12/08 04:00:49;;;;;;;4.45;1.80;;;4.80;99.90;;;;;;5020639;28;20209;-70
2021/12/08 04:03:39;;;;;;;2.47;1.80;;;4.80;99.90;;;;;;5016624;28;20590;-71
2021/12/08 04:06:31;;;;;;;5.85;2.45;;;4.80;99.90;;;;;;5009120;28;20222;-69
2021/12/08 04:09:25;;;;;;;3.10;2.10;;;4.80;99.90;;;;;;5014887;28;20719;-71
2021/12/08 04:12:13;;;;;;;7.15;2.22;;;4.80;99.90;;;;;;5016566;28;20198;-70
2021/12/08 04:15:01;;;;;;;4.65;2.40;;;4.80;99.90;;;;;;5019738;28;20334;-70
2021/12/08 04:17:50;;;;;;;3.42;2.70;;;4.80;99.90;;;;;;5014135;28;20707;-69
2021/12/08 04:20:41;;;;;;;4.55;2.42;;;4.90;99.90;;;;;;5024076;28;20198;-71
2021/12/08 04:23:32;;;;;;;3.65;2.53;;;4.90;99.90;;;;;;5013640;28;20202;-71
2021/12/08 04:26:23;;;;;;;4.90;2.65;;;5.00;99.90;;;;;;5011729;28;20234;-70
2021/12/08 04:29:11;;;;;;;3.30;2.05;;;5.00;99.90;;;;;;5016822;28;20218;-71
2021/12/08 04:31:57;;;;;;;5.55;2.30;;;4.90;99.90;;;;;;5014024;28;20572;-71
2021/12/08 04:34:46;;;;;;;4.78;2.00;;;4.90;99.90;;;;;;5019304;28;20206;-72
2021/12/08 04:37:37;;;;;;;4.82;2.00;;;5.00;99.90;;;;;;5016847;28;20221;-70
2021/12/08 04:40:33;;;;;;;3.72;2.53;;;5.00;99.90;;;;;;5017538;28;20200;-71
2021/12/08 04:43:25;;;;;;;4.07;2.03;;;5.00;99.90;;;;;;5020533;28;20280;-71
2021/12/08 04:46:21;;;;;;;3.78;1.90;;;5.00;99.90;;;;;;5011317;28;20311;-71
2021/12/08 04:49:25;;;;;;;2.83;1.65;;;5.00;99.90;;;;;;5018467;28;20687;-70
2021/12/08 04:52:17;;;;;;;8.18;2.00;;;4.90;99.90;;;;;;5016928;28;20280;-71
2021/12/08 05:01:30;;;;;;;3.08;2.00;;;5.00;99.90;;;;;;5012791;28;20197;-70
2021/12/08 05:04:33;;;;;;;12.13;3.05;;;5.10;99.90;;;;;;5016541;28;20540;-71
2021/12/08 05:07:33;;;;;;;3.13;2.22;;;5.10;99.90;;;;;;5013239;28;20225;-71
2021/12/08 05:10:28;;;;;;;3.40;1.70;;;5.10;99.90;;;;;;5013964;28;20330;-69
2021/12/08 05:13:15;;;;;;;5.47;2.05;;;5.10;99.90;;;;;;5016333;28;20721;-71
2021/12/08 05:16:01;;;;;;;5.22;2.15;;;5.10;99.90;;;;;;5009175;28;20248;-71
2021/12/08 05:18:49;;;;;;;3.40;1.95;;;5.10;99.90;;;;;;5024073;28;20209;-71
2021/12/08 05:21:38;;;;;;;5.95;2.42;;;5.20;99.90;;;;;;5018429;28;20341;-71
2021/12/08 05:24:28;;;;;;;4.82;2.15;;;5.20;99.90;;;;;;5012643;28;20222;-70
2021/12/08 05:27:18;;;;;;;3.90;2.13;;;5.10;99.90;;;;;;5013131;28;20347;-70
2021/12/08 05:30:08;;;;;;;6.75;2.15;;;5.10;99.90;;;;;;5021043;28;20358;-70
2021/12/08 05:32:54;;;;;;;3.30;1.80;;;5.20;99.90;;;;;;5020048;28;20214;-70
2021/12/08 05:35:42;;;;;;;5.03;2.10;;;5.20;99.90;;;;;;5018258;28;20206;-71
2021/12/08 05:38:28;;;;;;;3.45;2.08;;;5.20;99.90;;;;;;5012025;28;20321;-71
2021/12/08 05:41:18;;;;;;;5.53;2.05;;;5.30;99.90;;;;;;5017128;28;20256;-70
2021/12/08 05:44:05;;;;;;;6.97;2.58;;;5.30;99.90;;;;;;5015445;28;20581;-71
2021/12/08 05:46:56;;;;;;;6.05;3.00;;;5.30;99.90;;;;;;5008831;28;20253;-69
2021/12/08 05:49:42;;;;;;;5.10;2.85;;;5.30;99.90;;;;;;5016288;28;20573;-70
2021/12/08 05:52:28;;;;;;;4.05;2.20;;;5.40;99.90;;;;;;5016110;28;20260;-70
2021/12/08 05:55:14;;;;;;;5.43;2.30;;;5.40;99.90;;;;;;5011821;28;20215;-71
2021/12/08 05:58:00;;;;;;;4.00;2.58;;;5.40;99.90;;;;;;5021469;28;20222;-70
2021/12/08 06:00:50;;;;;;;4.68;2.00;;;5.30;99.90;;;;;;5013800;28;20202;-69
2021/12/08 06:03:36;;;;;;;4.70;2.00;;;5.30;99.90;;;;;;5013045;28;20804;-71
2021/12/08 06:06:23;;;;;;;4.03;2.30;;;5.30;99.90;;;;;;5011158;28;20592;-70
2021/12/08 06:09:11;;;;;;;5.75;2.00;;;5.40;99.90;;;;;;5015464;28;20230;-71
2021/12/08 06:11:57;;;;;;;4.10;2.35;;;5.30;99.90;;;;;;5013211;28;20273;-70
2021/12/08 06:14:44;;;;;;;11.75;2.00;;;5.30;99.90;;;;;;5012876;28;20305;-70
2021/12/08 06:17:32;;;;;;;4.57;1.88;;;5.30;99.90;;;;;;5017679;28;20690;-70
2021/12/08 06:20:19;;;;;;;5.35;2.40;;;5.30;99.90;;;;;;5015777;28;20332;-71
2021/12/08 06:23:06;;;;;;;5.85;2.78;;;5.30;99.90;;;;;;5017498;28;20277;-69
2021/12/08 06:25:52;;;;;;;2.90;2.33;;;5.30;99.90;;;;;;5009413;28;20228;-70
2021/12/08 06:28:39;;;;;;;3.67;2.50;;;5.20;99.90;;;;;;5014519;28;20202;-70
2021/12/08 06:31:27;;;;;;;4.60;2.25;;;5.30;99.90;;;;;;5011656;28;20695;-70
2021/12/08 06:34:15;;;;;;;4.78;2.30;;;5.20;99.90;;;;;;5009048;28;20214;-70
2021/12/08 06:37:05;;;;;;;2.75;2.03;;;5.20;99.90;;;;;;5011036;28;20238;-69
2021/12/08 06:39:55;;;;;;;4.70;2.40;;;5.30;99.90;;;;;;5017426;28;20252;-70
2021/12/08 06:42:43;;;;;;;4.85;2.53;;;5.30;99.90;;;;;;5010420;28;20568;-70
2021/12/08 06:45:34;;;;;;;2.95;2.00;;;5.30;99.90;;;;;;5013892;28;20205;-70
2021/12/08 06:48:23;;;;;;;3.97;2.25;;;5.30;99.90;;;;;;5010859;28;20312;-70
2021/12/08 06:51:15;;;;;;;2.63;2.00;;;5.30;99.90;;;;;;5012866;28;20690;-70
2021/12/08 06:54:06;;;;;;;4.15;2.33;;;5.40;99.90;;;;;;5010911;28;20530;-70
2021/12/08 06:56:56;;;;;;;5.30;2.40;;;5.40;99.90;;;;;;5014199;28;20241;-70
2021/12/08 06:59:54;;;;;;;3.72;2.45;;;5.40;99.90;;;;;;5011515;28;20201;-70
2021/12/08 07:06:06;;;;;;;5.45;2.90;;;5.50;99.90;;;;;;5004080;28;20194;-70
2021/12/08 07:08:54;;;;;;;5.50;3.00;;;5.50;99.90;;;;;;5011729;28;20594;-71
2021/12/08 07:11:41;;;;;;;6.03;2.60;;;5.30;99.90;;;;;;5018412;28;20205;-70
2021/12/08 07:14:29;;;;;;;7.15;3.28;;;5.40;99.90;;;;;;5007759;28;20419;-70
2021/12/08 07:17:19;;;;;;;3.15;2.20;;;5.30;99.90;;;;;;5014863;28;20249;-71
2021/12/08 07:20:17;;;;;;;4.90;2.95;;;5.20;99.90;;;;;;5014135;28;20202;-70
2021/12/08 07:23:03;;;;;;;4.28;3.08;;;5.20;99.90;;;;;;5016211;28;20679;-70
2021/12/08 07:25:52;;;;;;;5.97;3.35;;;5.10;99.90;;;;;;5014240;28;20206;-70
2021/12/08 07:28:40;;;;;;;3.67;2.83;;;5.20;99.90;;;;;;5018524;28;20329;-71
2021/12/08 07:31:28;;;;;;;5.82;3.50;;;5.20;99.90;;;;;;5015011;28;20245;-69
2021/12/08 07:34:18;;;;;;;4.82;3.20;;;5.20;99.90;;;;;;5012700;28;20560;-71
2021/12/08 07:37:08;;;;;;;4.97;3.42;;;5.10;99.90;;;;;;5020520;28;20353;-71
2021/12/08 07:39:59;;;;;;;5.20;3.17;;;5.10;99.90;;;;;;5015019;28;20189;-70
2021/12/08 07:42:50;;;;;;;4.63;2.80;;;5.20;99.90;;;;;;5015517;28;20281;-69
2021/12/08 07:45:42;;;;;;;3.72;2.95;;;5.10;99.90;;;;;;5016861;28;20202;-70
2021/12/08 07:48:32;;;;;;;6.78;3.63;;;5.00;99.90;;;;;;5060384;22;20311;-73
2021/12/08 07:51:22;;;;;;;5.97;3.90;;;5.00;99.90;;;;;;5053166;28;20307;-73
2021/12/08 07:54:11;;;;;;;8.20;3.85;;;5.00;99.90;;;;;;5055114;28;20586;-73
2021/12/08 07:56:59;;;;;;;6.30;4.18;;;5.00;99.90;;;;;;5060862;28;20219;-73
2021/12/08 07:59:50;;;;;;;10.95;3.95;;;4.90;99.90;;;;;;5053452;28;20216;-73
2021/12/08 08:02:35;;;;;;;4.75;3.00;;;4.90;99.90;;;;;;5060138;28;20232;-73
2021/12/08 08:05:27;;;;;;;6.78;3.40;;;4.90;99.90;;;;;;5056646;28;20447;-73
2021/12/08 08:08:15;;;;;;;4.90;3.30;;;4.90;99.90;;;;;;5058098;28;20303;-73
2021/12/08 08:11:05;;;;;;;6.85;4.28;;;4.80;99.90;;;;;;5048243;28;20224;-73
2021/12/08 08:13:51;;;;;;;14.80;4.10;;;4.80;99.90;;;;;;5058036;28;20571;-73
2021/12/08 08:16:40;;;;;;;7.32;3.75;;;4.80;99.90;;;;;;5059270;28;20208;-73
2021/12/08 08:19:30;;;;;;;9.15;4.40;;;4.80;99.90;;;;;;5057949;28;20201;-73
2021/12/08 08:22:18;;;;;;;4.43;3.60;;;4.80;99.90;;;;;;5060497;28;20197;-73
2021/12/08 08:25:07;;;;;;;6.80;3.95;;;4.80;99.90;;;;;;5058240;28;20196;-73
2021/12/08 08:27:53;;;;;;;7.43;4.00;;;4.80;99.90;;;;;;5056715;28;20371;-73
2021/12/08 08:30:42;;;;;;;7.20;3.78;;;4.80;99.90;;;;;;5060203;28;20224;-73
2021/12/08 08:33:30;;;;;;;4.03;3.15;;;4.80;99.90;;;;;;5049048;28;20213;-73
2021/12/08 08:36:19;;;;;;;3.78;2.75;;;4.90;99.90;;;;;;5060460;28;20204;-73
2021/12/08 08:39:09;;;;;;;7.80;3.22;;;5.00;99.90;;;;;;5052558;28;20205;-73
2021/12/08 08:42:05;;;;;;;4.80;3.17;;;5.00;99.90;;;;;;5054357;28;20324;-73
2021/12/08 08:44:54;;;;;;;11.77;3.15;;;5.00;99.90;;;;;;5053975;28;20215;-73
2021/12/08 08:47:42;;;;;;;5.65;3.75;;;5.00;99.90;;;;;;5056386;28;20279;-73
2021/12/08 08:50:41;;;;;;;4.72;3.08;;;5.00;99.90;;;;;;5052953;28;20237;-73
2021/12/08 08:53:30;;;;;;;3.90;3.38;;;5.10;99.90;;;;;;5059546;28;20264;-73
2021/12/08 08:56:19;;;;;;;3.30;2.60;;;5.20;99.90;;;;;;5056955;28;20251;-73
2021/12/08 08:59:07;;;;;;;5.15;3.00;;;5.30;99.90;;;;;;5054349;28;20250;-73
2021/12/08 09:01:55;;;;;;;9.07;3.03;;;5.40;99.90;;;;;;5057164;28;20192;-73
2021/12/08 09:04:45;;;;;;;5.93;3.85;;;5.40;99.90;;;;;;5062219;28;20512;-73
2021/12/08 09:07:35;;;;;;;9.93;3.60;;;5.50;99.90;;;;;;5057752;28;20221;-73
2021/12/08 09:10:27;;;;;;;4.95;3.17;;;5.40;99.90;;;;;;5059766;28;20236;-73
2021/12/08 09:13:19;;;;;;;6.20;3.28;;;5.50;99.90;;;;;;5048318;28;20216;-73
2021/12/08 09:16:08;;;;;;;4.05;2.95;;;5.60;99.90;;;;;;5053480;28;20256;-73
2021/12/08 09:19:02;;;;;;;5.32;3.08;;;5.60;99.90;;;;;;5058659;28;20677;-73
2021/12/08 09:21:57;;;;;;;7.15;3.13;;;5.60;99.90;;;;;;5053211;28;20197;-73
2021/12/08 09:24:48;;;;;;;4.15;3.00;;;5.60;99.90;;;;;;5057328;28;20208;-73
2021/12/08 09:27:36;;;;;;;4.03;3.30;;;5.70;99.90;;;;;;5059318;28;20588;-73
2021/12/08 09:30:32;;;;;;;6.38;3.80;;;5.80;99.90;;;;;;5059213;28;20244;-73
2021/12/08 09:33:23;;;;;;;6.40;4.82;;;5.90;99.90;;;;;;5057990;28;20200;-73
2021/12/08 09:36:12;;;;;;;8.52;5.30;;;5.90;99.90;;;;;;5052973;28;20692;-73
2021/12/08 09:39:01;;;;;;;7.03;4.72;;;6.00;99.90;;;;;;5050850;28;20564;-73
2021/12/08 09:41:52;;;;;;;5.40;3.97;;;6.00;99.90;;;;;;5051777;28;20197;-73
2021/12/08 09:44:41;;;;;;;4.55;3.85;;;6.00;99.90;;;;;;5055305;28;20284;-73
2021/12/08 09:47:29;;;;;;;6.25;4.75;;;5.90;99.90;;;;;;5063857;28;20228;-73
2021/12/08 09:50:16;;;;;;;8.60;5.32;;;6.00;99.90;;;;;;5057572;28;20228;-73
2021/12/08 09:53:02;;;;;;;6.95;5.38;;;6.00;99.90;;;;;;5047133;28;20205;-73
2021/12/08 09:55:50;;;;;;;8.73;6.20;;;6.10;99.90;;;;;;5057173;28;20217;-71
2021/12/08 09:58:39;;;;;;;7.40;5.55;;;6.10;99.90;;;;;;5054659;28;20225;-71
2021/12/08 10:01:25;;;;;;;10.93;6.35;;;6.00;99.90;;;;;;5048331;28;20678;-73
2021/12/08 10:04:13;;;;;;;12.25;7.65;;;6.00;99.90;;;;;;5057355;28;20302;-73
2021/12/08 10:07:02;;;;;;;17.55;9.75;;;6.10;99.90;;;;;;5051125;28;20218;-73
2021/12/08 10:09:49;;;;;;;11.85;8.05;;;6.10;99.90;;;;;;5047776;28;20201;-73
2021/12/08 10:12:37;;;;;;;23.13;10.68;;;6.20;99.90;;;;;;5049556;28;20687;-73
2021/12/08 10:15:25;;;;;;;19.75;14.15;;;6.10;99.90;;;;;;5052953;28;20697;-73
2021/12/08 10:18:12;;;;;;;20.58;12.15;;;6.20;99.90;;;;;;5047368;28;20220;-73
2021/12/08 10:20:58;;;;;;;23.77;14.35;;;6.20;99.90;;;;;;5049913;28;20204;-73
2021/12/08 10:23:47;;;;;;;19.42;14.05;;;6.20;99.90;;;;;;5051302;28;20672;-73
2021/12/08 10:26:34;;;;;;;19.80;14.00;;;6.20;99.90;;;;;;5052201;28;20196;-73
2021/12/08 10:29:25;;;;;;;19.70;14.65;;;6.20;99.90;;;;;;5059391;28;20200;-73
2021/12/08 10:32:15;;;;;;;18.20;13.50;;;6.20;99.90;;;;;;5044326;28;20240;-73
2021/12/08 10:35:06;;;;;;;22.35;15.30;;;6.30;99.90;;;;;;5048695;28;20205;-73
2021/12/08 10:38:00;;;;;;;24.63;17.70;;;6.30;99.90;;;;;;5059165;28;20577;-73
2021/12/08 10:41:00;;;;;;;23.48;17.05;;;6.30;99.90;;;;;;5050009;28;20221;-73
2021/12/08 10:43:58;;;;;;;24.67;18.50;;;6.40;99.90;;;;;;5052530;28;20663;-73
2021/12/08 10:46:44;;;;;;;22.52;16.45;;;6.40;99.90;;;;;;5054711;28;20201;-73
2021/12/08 10:55:41;;;;;;;19.33;13.65;;;6.20;99.90;;;;;;5056689;28;20250;-73
2021/12/08 10:58:29;;;;;;;18.27;13.98;;;6.20;99.90;;;;;;5057344;28;20329;-73
2021/12/08 11:01:18;;;;;;;19.83;16.73;;;6.20;99.90;;;;;;5055365;28;20208;-73
2021/12/08 11:04:05;;;;;;;24.52;13.77;;;6.20;99.90;;;;;;5055261;28;20197;-73
2021/12/08 11:07:02;;;;;;;17.50;13.63;;;6.30;99.90;;;;;;5061326;28;20634;-73
2021/12/08 11:09:48;;;;;;;19.35;12.38;;;6.30;99.90;;;;;;5054778;28;20201;-73
2021/12/08 11:12:39;;;;;;;16.67;12.55;;;6.30;99.90;;;;;;5059690;28;20582;-73
2021/12/08 11:15:27;;;;;;;19.33;13.10;;;6.40;99.90;;;;;;5060769;28;20717;-73
2021/12/08 11:18:16;;;;;;;20.15;12.63;;;6.40;99.90;;;;;;5054646;28;20339;-73
2021/12/08 11:21:06;;;;;;;20.33;12.85;;;6.40;99.90;;;;;;5049151;28;20212;-73
2021/12/08 11:23:56;;;;;;;17.60;11.55;;;6.50;99.90;;;;;;5049598;28;20732;-73
2021/12/08 11:26:47;;;;;;;20.42;13.00;;;6.50;99.90;;;;;;5056596;28;20209;-73
2021/12/08 11:29:36;;;;;;;19.27;12.95;;;6.50;99.90;;;;;;5057980;28;20212;-73
2021/12/08 11:32:24;;;;;;;18.10;12.93;;;6.50;99.90;;;;;;5057567;28;20240;-73
2021/12/08 11:35:20;;;;;;;19.38;13.75;;;6.50;99.90;;;;;;5059493;28;20677;-73
2021/12/08 11:38:05;;;;;;;23.02;12.43;;;6.50;99.90;;;;;;5056600;28;20591;-73
2021/12/08 11:40:52;;;;;;;19.00;12.80;;;6.50;99.90;;;;;;5051659;28;20196;-73
2021/12/08 11:43:38;;;;;;;17.52;12.10;;;6.50;99.90;;;;;;5064297;28;20208;-73
2021/12/08 11:46:25;;;;;;;18.90;13.18;;;6.50;99.90;;;;;;5052257;28;20565;-73
2021/12/08 11:49:11;;;;;;;14.93;11.57;;;6.50;99.90;;;;;;5059697;28;20204;-73
2021/12/08 11:52:01;;;;;;;16.10;12.95;;;6.50;99.90;;;;;;5058602;28;20294;-73
2021/12/08 11:54:52;;;;;;;16.48;11.30;;;6.60;99.90;;;;;;5053675;28;20287;-73
2021/12/08 11:57:44;;;;;;;15.05;11.30;;;6.50;99.90;;;;;;5054172;28;20632;-73
2021/12/08 12:00:34;;;;;;;14.90;11.10;;;6.50;99.90;;;;;;5056442;28;20263;-73
2021/12/08 12:03:20;;;;;;;16.63;11.60;;;6.60;99.90;;;;;;5058842;28;20209;-73
2021/12/08 12:06:06;;;;;;;18.35;10.75;;;6.60;99.90;;;;;;5055330;28;20593;-73
2021/12/08 12:08:52;;;;;;;14.13;10.70;;;6.60;99.90;;;;;;5061285;28;20291;-73
2021/12/08 12:11:38;;;;;;;15.45;11.35;;;6.70;99.90;;;;;;5051812;28;20315;-73
2021/12/08 12:14:28;;;;;;;14.43;9.20;;;6.70;99.90;;;;;;5055525;28;20576;-73
2021/12/08 12:17:14;;;;;;;13.95;10.65;;;6.70;99.90;;;;;;5053303;28;20271;-73
2021/12/08 12:20:06;;;;;;;14.27;9.85;;;6.80;99.90;;;;;;5049883;28;20209;-72
2021/12/08 12:23:20;;;;;;;15.23;10.00;;;6.80;99.90;;;;;;5065916;28;20751;-74
2021/12/08 12:26:17;;;;;;;12.15;8.23;;;6.80;99.90;;;;;;5059747;28;20199;-73
2021/12/08 12:29:12;;;;;;;10.60;7.75;;;6.80;99.90;;;;;;5052161;28;20678;-73
2021/12/08 12:32:05;;;;;;;11.90;7.60;;;6.80;99.90;;;;;;5060136;28;20287;-71
2021/12/08 12:34:53;;;;;;;10.88;6.90;;;6.90;99.90;;;;;;5055480;28;20275;-71
2021/12/08 12:37:40;;;;;;;12.13;8.10;;;6.90;99.90;;;;;;5054754;28;20275;-71
2021/12/08 12:40:34;;;;;;;11.23;6.82;;;6.90;99.90;;;;;;5052447;28;20275;-71
2021/12/08 12:43:25;;;;;;;12.48;8.60;;;7.00;99.90;;;;;;5060685;28;20260;-73
2021/12/08 12:46:13;;;;;;;10.48;7.55;;;7.10;99.90;;;;;;5061470;28;20252;-73
2021/12/08 12:49:23;;;;;;;10.30;8.32;;;7.00;99.90;;;;;;5051504;28;20217;-73
2021/12/08 12:52:11;;;;;;;8.98;7.78;;;7.00;99.90;;;;;;5057861;28;20298;-73
2021/12/08 12:55:08;;;;;;;12.35;7.90;;;6.90;99.90;;;;;;5052843;28;20208;-73
2021/12/08 12:58:16;;;;;;;9.13;7.70;;;6.90;99.90;;;;;;5049862;28;20743;-73
2021/12/08 13:01:08;;;;;;;11.40;8.05;;;7.00;99.90;;;;;;5055820;28;20213;-73
2021/12/08 13:03:56;;;;;;;11.60;8.77;;;7.00;99.90;;;;;;5053508;28;20340;-72
2021/12/08 13:06:48;;;;;;;14.30;7.80;;;7.00;99.90;;;;;;5054007;28;20671;-72
2021/12/08 13:09:47;;;;;;;12.27;7.45;;;7.00;99.90;;;;;;5048223;28;20221;-72
2021/12/08 13:12:42;;;;;;;12.57;8.48;;;7.00;99.90;;;;;;5052184;28;20229;-70
2021/12/08 13:15:31;;;;;;;11.90;8.32;;;7.00;99.90;;;;;;5054158;28;20205;-72
2021/12/08 13:18:19;;;;;;;13.35;8.25;;;7.00;99.90;;;;;;5043078;28;20233;-72
2021/12/08 13:21:06;;;;;;;10.13;7.70;;;6.90;99.90;;;;;;5050776;28;20204;-72
2021/12/08 13:23:52;;;;;;;11.52;9.02;;;7.00;99.90;;;;;;5044323;28;20287;-72
2021/12/08 13:26:49;;;;;;;14.77;9.68;;;7.00;99.90;;;;;;5054807;28;20282;-72
2021/12/08 13:29:37;;;;;;;11.73;8.00;;;7.00;99.90;;;;;;5048775;28;20200;-72
2021/12/08 13:32:44;;;;;;;11.95;8.63;;;7.00;99.90;;;;;;5053239;28;20216;-72
2021/12/08 13:35:33;;;;;;;11.00;8.77;;;7.00;99.90;;;;;;5050566;28;20197;-72
2021/12/08 13:38:18;;;;;;;14.88;9.45;;;7.00;99.90;;;;;;5052814;28;20789;-72
2021/12/08 13:41:15;;;;;;;17.00;8.93;;;7.10;99.90;;;;;;5052065;28;20221;-72
2021/12/08 13:44:02;;;;;;;11.98;8.45;;;7.00;99.90;;;;;;5058080;28;20208;-72
2021/12/08 13:46:50;;;;;;;15.50;10.30;;;7.00;99.90;;;;;;5053884;28;20349;-72
2021/12/08 13:49:48;;;;;;;12.68;9.80;;;7.00;99.90;;;;;;5071401;22;20303;-70
2021/12/08 13:52:34;;;;;;;16.38;10.40;;;7.00;99.90;;;;;;5065157;28;20223;-69
2021/12/08 13:55:23;;;;;;;12.75;9.73;;;7.00;99.90;;;;;;5068128;28;20220;-72
2021/12/08 13:58:15;;;;;;;11.03;9.13;;;7.00;99.90;;;;;;5053857;28;20774;-69
2021/12/08 14:01:02;;;;;;;10.45;8.65;;;6.90;99.90;;;;;;5043297;28;20486;-71
2021/12/08 14:03:49;;;;;;;10.20;7.72;;;6.90;99.90;;;;;;5046284;28;20296;-69
2021/12/08 14:06:34;;;;;;;12.43;7.67;;;6.90;99.90;;;;;;5046245;28;20212;-69
2021/12/08 14:09:21;;;;;;;9.45;7.13;;;6.90;99.90;;;;;;5034479;28;20875;-70
2021/12/08 14:12:07;;;;;;;11.90;8.40;;;6.90;99.90;;;;;;5051599;28;20224;-69
2021/12/08 14:14:59;;;;;;;11.15;8.10;;;6.90;99.90;;;;;;5050826;28;20204;-69
2021/12/08 14:17:45;;;;;;;12.07;8.18;;;6.80;99.90;;;;;;5042980;28;20233;-69
2021/12/08 14:20:35;;;;;;;12.97;8.67;;;6.80;99.90;;;;;;5041465;28;20212;-69
2021/12/08 14:23:22;;;;;;;13.00;8.05;;;6.90;99.90;;;;;;5046712;28;20452;-68
2021/12/08 14:26:10;;;;;;;17.25;8.95;;;6.90;99.90;;;;;;5050433;28;20216;-68
2021/12/08 14:28:58;;;;;;;15.00;8.82;;;6.80;99.90;;;;;;5038073;28;20216;-69
2021/12/08 14:31:47;;;;;;;13.07;8.60;;;6.90;99.90;;;;;;5047606;28;20219;-68
2021/12/08 14:34:34;;;;;;;12.73;8.30;;;6.90;99.90;;;;;;5050651;28;20360;-69
2021/12/08 14:37:20;;;;;;;10.27;7.57;;;6.90;99.90;;;;;;5052337;28;20212;-69
2021/12/08 14:40:10;;;;;;;9.30;7.10;;;6.80;99.90;;;;;;5036729;28;20729;-69
2021/12/08 14:42:56;;;;;;;12.70;6.80;;;6.80;99.90;;;;;;5044885;28;20744;-68
2021/12/08 14:45:42;;;;;;;8.43;6.38;;;6.70;99.90;;;;;;5055934;28;20204;-69
2021/12/08 14:48:29;;;;;;;14.98;8.55;;;6.80;99.90;;;;;;5044970;28;20237;-69
2021/12/08 14:51:23;;;;;;;14.18;7.78;;;6.70;99.90;;;;;;5049667;28;20255;-69
2021/12/08 14:54:11;;;;;;;9.90;7.00;;;6.70;99.90;;;;;;5047300;28;20205;-70
2021/12/08 14:57:16;;;;;;;11.40;8.30;;;6.60;99.90;;;;;;5045841;28;20197;-69
2021/12/08 15:00:06;;;;;;;9.25;7.68;;;6.50;99.90;;;;;;5047911;28;20555;-69
2021/12/08 15:03:06;;;;;;;17.58;10.55;;;6.30;99.90;;;;;;5050693;28;20197;-70
2021/12/08 15:05:53;;;;;;;20.15;12.73;;;6.20;99.90;;;;;;5046562;28;20692;-70
2021/12/08 15:08:41;;;;;;;17.02;12.13;;;6.10;99.90;;;;;;5045876;28;20228;-70
2021/12/08 15:11:29;;;;;;;13.63;11.05;;;6.10;99.90;;;;;;5044387;28;20279;-69
2021/12/08 15:14:16;;;;;;;16.20;11.77;;;6.10;99.90;;;;;;5044025;28;20216;-69
2021/12/08 15:17:01;;;;;;;14.75;10.52;;;6.10;99.90;;;;;;5047026;28;20517;-69
2021/12/08 15:19:52;;;;;;;19.52;12.70;;;6.00;99.90;;;;;;5050508;28;20227;-69
2021/12/08 15:22:42;;;;;;;17.35;11.90;;;6.00;99.90;;;;;;5048097;28;20244;-68